sensor_id;sensor_type;location;lat;lon;timestamp;temperature;humidity
76172;DHT22;64929;51.178;4.138;2024-02-21T00:00:38;10.20;99.90
76172;DHT22;64929;51.178;4.138;2024-02-21T00:03:04;10.10;99.90
76172;DHT22;64929;51.178;4.138;2024-02-21T00:05:30;10.20;99.90
76172;DHT22;64929;51.178;4.138;2024-02-21T00:07:58;10.20;99.90
76172;DHT22;64929;51.178;4.138;2024-02-21T00:10:24;10.20;99.90
76172;DHT22;64929;51.178;4.138;2024-02-21T00:12:50;10.30;99.90
76172;DHT22;64929;51.178;4.138;2024-02-21T00:15:16;10.20;99.90
76172;DHT22;64929;51.178;4.138;2024-02-21T00:17:45;10.30;99.90
76172;DHT22;64929;51.178;4.138;2024-02-21T00:20:11;10.20;99.90
76172;DHT22;64929;51.178;4.138;2024-02-21T00:22:37;10.10;99.90
76172;DHT22;64929;51.178;4.138;2024-02-21T00:25:03;10.10;99.90
76172;DHT22;64929;51.178;4.138;2024-02-21T00:27:29;10.10;99.90
76172;DHT22;64929;51.178;4.138;2024-02-21T00:29:55;10.10;99.90
76172;DHT22;64929;51.178;4.138;2024-02-21T00:32:20;10.10;99.90
76172;DHT22;64929;51.178;4.138;2024-02-21T00:34:46;10.10;99.90
76172;DHT22;64929;51.178;4.138;2024-02-21T00:37:12;10.10;99.90
76172;DHT22;64929;51.178;4.138;2024-02-21T00:39:37;10.00;99.90
76172;DHT22;64929;51.178;4.138;2024-02-21T00:42:04;10.00;99.90
76172;DHT22;64929;51.178;4.138;2024-02-21T00:44:30;9.90;99.90
76172;DHT22;64929;51.178;4.138;2024-02-21T00:46:56;10.00;99.90
76172;DHT22;64929;51.178;4.138;2024-02-21T00:49:22;10.10;99.90
76172;DHT22;64929;51.178;4.138;2024-02-21T00:51:47;10.00;99.90
76172;DHT22;64929;51.178;4.138;2024-02-21T00:54:13;10.00;99.90
76172;DHT22;64929;51.178;4.138;2024-02-21T00:56:39;10.00;99.90
76172;DHT22;64929;51.178;4.138;2024-02-21T00:59:05;9.90;99.90
76172;DHT22;64929;51.178;4.138;2024-02-21T01:01:31;9.80;99.90
76172;DHT22;64929;51.178;4.138;2024-02-21T01:03:56;9.80;99.90
76172;DHT22;64929;51.178;4.138;2024-02-21T01:06:22;9.80;99.90
76172;DHT22;64929;51.178;4.138;2024-02-21T01:08:49;9.80;99.90
76172;DHT22;64929;51.178;4.138;2024-02-21T01:11:15;9.70;99.90
76172;DHT22;64929;51.178;4.138;2024-02-21T01:13:41;9.70;99.90
76172;DHT22;64929;51.178;4.138;2024-02-21T01:16:07;9.80;99.90
76172;DHT22;64929;51.178;4.138;2024-02-21T01:18:37;9.80;99.90
76172;DHT22;64929;51.178;4.138;2024-02-21T01:21:04;9.80;99.90
76172;DHT22;64929;51.178;4.138;2024-02-21T01:23:33;9.80;99.90
76172;DHT22;64929;51.178;4.138;2024-02-21T01:25:59;9.80;99.90
76172;DHT22;64929;51.178;4.138;2024-02-21T01:28:25;9.80;99.90
76172;DHT22;64929;51.178;4.138;2024-02-21T01:30:51;9.90;99.90
76172;DHT22;64929;51.178;4.138;2024-02-21T01:33:17;9.90;99.90
76172;DHT22;64929;51.178;4.138;2024-02-21T01:35:43;9.90;99.90
76172;DHT22;64929;51.178;4.138;2024-02-21T01:38:08;9.80;99.90
76172;DHT22;64929;51.178;4.138;2024-02-21T01:40:34;9.80;99.90
76172;DHT22;64929;51.178;4.138;2024-02-21T01:43:00;9.90;99.90
76172;DHT22;64929;51.178;4.138;2024-02-21T01:45:25;9.90;99.90
76172;DHT22;64929;51.178;4.138;2024-02-21T01:47:51;9.80;99.90
76172;DHT22;64929;51.178;4.138;2024-02-21T01:50:17;9.90;99.90
76172;DHT22;64929;51.178;4.138;2024-02-21T01:52:46;9.90;99.90
76172;DHT22;64929;51.178;4.138;2024-02-21T01:55:13;9.90;99.90
76172;DHT22;64929;51.178;4.138;2024-02-21T01:57:41;9.80;99.90
76172;DHT22;64929;51.178;4.138;2024-02-21T02:00:08;9.80;99.90
76172;DHT22;64929;51.178;4.138;2024-02-21T02:02:36;9.90;99.90
76172;DHT22;64929;51.178;4.138;2024-02-21T02:05:04;9.90;99.90
76172;DHT22;64929;51.178;4.138;2024-02-21T02:07:31;9.90;99.90
76172;DHT22;64929;51.178;4.138;2024-02-21T02:09:57;9.80;99.90
76172;DHT22;64929;51.178;4.138;2024-02-21T02:12:23;9.80;99.90
76172;DHT22;64929;51.178;4.138;2024-02-21T02:14:59;10.00;99.90
76172;DHT22;64929;51.178;4.138;2024-02-21T02:17:25;10.00;99.90
76172;DHT22;64929;51.178;4.138;2024-02-21T02:19:51;9.80;99.90
76172;DHT22;64929;51.178;4.138;2024-02-21T02:22:22;9.70;99.90
76172;DHT22;64929;51.178;4.138;2024-02-21T02:24:48;9.70;99.90
76172;DHT22;64929;51.178;4.138;2024-02-21T02:27:14;9.70;99.90
76172;DHT22;64929;51.178;4.138;2024-02-21T02:29:39;9.60;99.90
76172;DHT22;64929;51.178;4.138;2024-02-21T02:32:05;9.60;99.90
76172;DHT22;64929;51.178;4.138;2024-02-21T02:34:31;9.50;99.90
76172;DHT22;64929;51.178;4.138;2024-02-21T02:36:57;9.60;99.90
76172;DHT22;64929;51.178;4.138;2024-02-21T02:39:23;9.50;99.90
76172;DHT22;64929;51.178;4.138;2024-02-21T02:41:48;9.40;99.90
76172;DHT22;64929;51.178;4.138;2024-02-21T02:44:14;9.40;99.90
76172;DHT22;64929;51.178;4.138;2024-02-21T02:46:43;9.30;99.90
76172;DHT22;64929;51.178;4.138;2024-02-21T02:49:09;9.50;99.90
76172;DHT22;64929;51.178;4.138;2024-02-21T02:51:34;9.40;99.90
76172;DHT22;64929;51.178;4.138;2024-02-21T02:54:00;9.50;99.90
76172;DHT22;64929;51.178;4.138;2024-02-21T02:56:26;9.50;99.90
76172;DHT22;64929;51.178;4.138;2024-02-21T02:58:51;9.40;99.90
76172;DHT22;64929;51.178;4.138;2024-02-21T03:01:17;9.40;99.90
76172;DHT22;64929;51.178;4.138;2024-02-21T03:03:43;9.40;99.90
76172;DHT22;64929;51.178;4.138;2024-02-21T03:06:10;9.50;99.90
76172;DHT22;64929;51.178;4.138;2024-02-21T03:08:36;9.40;99.90
76172;DHT22;64929;51.178;4.138;2024-02-21T03:11:02;9.20;99.90
76172;DHT22;64929;51.178;4.138;2024-02-21T03:13:28;9.20;99.90
76172;DHT22;64929;51.178;4.138;2024-02-21T03:15:54;9.30;99.90
76172;DHT22;64929;51.178;4.138;2024-02-21T03:18:19;9.40;99.90
76172;DHT22;64929;51.178;4.138;2024-02-21T03:20:45;9.40;99.90
76172;DHT22;64929;51.178;4.138;2024-02-21T03:23:11;9.50;99.90
76172;DHT22;64929;51.178;4.138;2024-02-21T03:25:36;9.40;99.90
76172;DHT22;64929;51.178;4.138;2024-02-21T03:28:02;9.50;99.90
76172;DHT22;64929;51.178;4.138;2024-02-21T03:30:29;9.50;99.90
76172;DHT22;64929;51.178;4.138;2024-02-21T03:32:54;9.50;99.90
76172;DHT22;64929;51.178;4.138;2024-02-21T03:35:20;9.30;99.90
76172;DHT22;64929;51.178;4.138;2024-02-21T03:37:46;9.40;99.90
76172;DHT22;64929;51.178;4.138;2024-02-21T03:40:11;9.40;99.90
76172;DHT22;64929;51.178;4.138;2024-02-21T03:42:38;9.50;99.90
76172;DHT22;64929;51.178;4.138;2024-02-21T03:45:04;9.40;99.90
76172;DHT22;64929;51.178;4.138;2024-02-21T03:47:30;9.30;99.90
76172;DHT22;64929;51.178;4.138;2024-02-21T03:49:55;9.30;99.90
76172;DHT22;64929;51.178;4.138;2024-02-21T03:52:22;9.30;99.90
76172;DHT22;64929;51.178;4.138;2024-02-21T03:54:47;9.30;99.90
76172;DHT22;64929;51.178;4.138;2024-02-21T03:57:13;9.40;99.90
76172;DHT22;64929;51.178;4.138;2024-02-21T03:59:39;9.30;99.90
76172;DHT22;64929;51.178;4.138;2024-02-21T04:02:05;9.30;99.90
76172;DHT22;64929;51.178;4.138;2024-02-21T04:04:37;9.30;99.90
76172;DHT22;64929;51.178;4.138;2024-02-21T04:07:03;9.30;99.90
76172;DHT22;64929;51.178;4.138;2024-02-21T04:09:32;9.40;99.90
76172;DHT22;64929;51.178;4.138;2024-02-21T04:12:01;9.30;99.90
76172;DHT22;64929;51.178;4.138;2024-02-21T04:14:27;9.30;99.90
76172;DHT22;64929;51.178;4.138;2024-02-21T04:16:53;9.40;99.90
76172;DHT22;64929;51.178;4.138;2024-02-21T04:19:18;9.40;99.90
76172;DHT22;64929;51.178;4.138;2024-02-21T04:21:44;9.40;99.90
76172;DHT22;64929;51.178;4.138;2024-02-21T04:24:10;9.40;99.90
76172;DHT22;64929;51.178;4.138;2024-02-21T04:26:35;9.40;99.90
76172;DHT22;64929;51.178;4.138;2024-02-21T04:29:01;9.30;99.90
76172;DHT22;64929;51.178;4.138;2024-02-21T04:31:28;9.40;99.90
76172;DHT22;64929;51.178;4.138;2024-02-21T04:33:53;9.20;99.90
76172;DHT22;64929;51.178;4.138;2024-02-21T04:36:19;9.20;99.90
76172;DHT22;64929;51.178;4.138;2024-02-21T04:38:45;9.20;99.90
76172;DHT22;64929;51.178;4.138;2024-02-21T04:41:11;9.20;99.90
76172;DHT22;64929;51.178;4.138;2024-02-21T04:43:37;9.30;99.90
76172;DHT22;64929;51.178;4.138;2024-02-21T04:46:02;9.30;99.90
76172;DHT22;64929;51.178;4.138;2024-02-21T04:48:28;9.30;99.90
76172;DHT22;64929;51.178;4.138;2024-02-21T04:50:54;9.20;99.90
76172;DHT22;64929;51.178;4.138;2024-02-21T04:53:19;9.20;99.90
76172;DHT22;64929;51.178;4.138;2024-02-21T04:55:46;9.20;99.90
76172;DHT22;64929;51.178;4.138;2024-02-21T04:58:12;9.10;99.90
76172;DHT22;64929;51.178;4.138;2024-02-21T05:00:38;9.00;99.90
76172;DHT22;64929;51.178;4.138;2024-02-21T05:03:04;9.10;99.90
76172;DHT22;64929;51.178;4.138;2024-02-21T05:05:29;9.10;99.90
76172;DHT22;64929;51.178;4.138;2024-02-21T05:07:55;9.00;99.90
76172;DHT22;64929;51.178;4.138;2024-02-21T05:10:21;9.10;99.90
76172;DHT22;64929;51.178;4.138;2024-02-21T05:12:46;9.10;99.90
76172;DHT22;64929;51.178;4.138;2024-02-21T05:15:12;9.10;99.90
76172;DHT22;64929;51.178;4.138;2024-02-21T05:17:38;9.10;99.90
76172;DHT22;64929;51.178;4.138;2024-02-21T05:20:04;9.00;99.90
76172;DHT22;64929;51.178;4.138;2024-02-21T05:22:31;9.10;99.90
76172;DHT22;64929;51.178;4.138;2024-02-21T05:24:56;9.20;99.90
76172;DHT22;64929;51.178;4.138;2024-02-21T05:27:22;9.20;99.90
76172;DHT22;64929;51.178;4.138;2024-02-21T05:29:48;9.30;99.90
76172;DHT22;64929;51.178;4.138;2024-02-21T05:32:14;9.30;99.90
76172;DHT22;64929;51.178;4.138;2024-02-21T05:34:40;9.20;99.90
76172;DHT22;64929;51.178;4.138;2024-02-21T05:37:05;9.10;99.90
76172;DHT22;64929;51.178;4.138;2024-02-21T05:39:31;9.10;99.90
76172;DHT22;64929;51.178;4.138;2024-02-21T05:41:57;9.10;99.90
76172;DHT22;64929;51.178;4.138;2024-02-21T05:44:23;9.10;99.90
76172;DHT22;64929;51.178;4.138;2024-02-21T05:46:48;9.10;99.90
76172;DHT22;64929;51.178;4.138;2024-02-21T05:49:14;9.10;99.90
76172;DHT22;64929;51.178;4.138;2024-02-21T05:51:40;9.10;99.90
76172;DHT22;64929;51.178;4.138;2024-02-21T05:54:05;9.10;99.90
76172;DHT22;64929;51.178;4.138;2024-02-21T05:56:32;9.20;99.90
76172;DHT22;64929;51.178;4.138;2024-02-21T05:58:58;9.10;99.90
76172;DHT22;64929;51.178;4.138;2024-02-21T06:01:24;9.10;99.90
76172;DHT22;64929;51.178;4.138;2024-02-21T06:03:50;9.20;99.90
76172;DHT22;64929;51.178;4.138;2024-02-21T06:06:15;9.20;99.90
76172;DHT22;64929;51.178;4.138;2024-02-21T06:08:41;9.20;99.90
76172;DHT22;64929;51.178;4.138;2024-02-21T06:11:07;9.20;99.90
76172;DHT22;64929;51.178;4.138;2024-02-21T06:13:33;9.10;99.90
76172;DHT22;64929;51.178;4.138;2024-02-21T06:15:58;9.20;99.90
76172;DHT22;64929;51.178;4.138;2024-02-21T06:18:24;9.20;99.90
76172;DHT22;64929;51.178;4.138;2024-02-21T06:20:50;9.20;99.90
76172;DHT22;64929;51.178;4.138;2024-02-21T06:23:16;9.10;99.90
76172;DHT22;64929;51.178;4.138;2024-02-21T06:25:44;9.10;99.90
76172;DHT22;64929;51.178;4.138;2024-02-21T06:28:11;9.00;99.90
76172;DHT22;64929;51.178;4.138;2024-02-21T06:30:37;9.00;99.90
76172;DHT22;64929;51.178;4.138;2024-02-21T06:33:03;9.10;99.90
76172;DHT22;64929;51.178;4.138;2024-02-21T06:35:29;9.10;99.90
76172;DHT22;64929;51.178;4.138;2024-02-21T06:37:54;9.10;99.90
76172;DHT22;64929;51.178;4.138;2024-02-21T06:40:22;9.20;99.90
76172;DHT22;64929;51.178;4.138;2024-02-21T06:42:48;9.10;99.90
76172;DHT22;64929;51.178;4.138;2024-02-21T06:45:14;9.10;99.90
76172;DHT22;64929;51.178;4.138;2024-02-21T06:47:40;9.10;99.90
76172;DHT22;64929;51.178;4.138;2024-02-21T06:50:06;9.10;99.90
76172;DHT22;64929;51.178;4.138;2024-02-21T06:52:32;9.20;99.90
76172;DHT22;64929;51.178;4.138;2024-02-21T06:54:57;9.20;99.90
76172;DHT22;64929;51.178;4.138;2024-02-21T06:57:23;9.20;99.90
76172;DHT22;64929;51.178;4.138;2024-02-21T06:59:49;9.20;99.90
76172;DHT22;64929;51.178;4.138;2024-02-21T07:02:14;9.20;99.90
76172;DHT22;64929;51.178;4.138;2024-02-21T07:04:40;9.20;99.90
76172;DHT22;64929;51.178;4.138;2024-02-21T07:07:06;9.30;99.90
76172;DHT22;64929;51.178;4.138;2024-02-21T07:09:35;9.20;99.90
76172;DHT22;64929;51.178;4.138;2024-02-21T07:12:01;9.30;99.90
76172;DHT22;64929;51.178;4.138;2024-02-21T07:14:33;9.30;99.90
76172;DHT22;64929;51.178;4.138;2024-02-21T07:16:59;9.20;99.90
76172;DHT22;64929;51.178;4.138;2024-02-21T07:19:25;9.30;99.90
76172;DHT22;64929;51.178;4.138;2024-02-21T07:21:51;9.30;99.90
76172;DHT22;64929;51.178;4.138;2024-02-21T07:24:16;9.30;99.90
76172;DHT22;64929;51.178;4.138;2024-02-21T07:26:42;9.30;99.90
76172;DHT22;64929;51.178;4.138;2024-02-21T07:29:08;9.30;99.90
76172;DHT22;64929;51.178;4.138;2024-02-21T07:31:41;9.40;99.90
76172;DHT22;64929;51.178;4.138;2024-02-21T07:34:07;9.40;99.90
76172;DHT22;64929;51.178;4.138;2024-02-21T07:36:32;9.30;99.90
76172;DHT22;64929;51.178;4.138;2024-02-21T07:38:58;9.40;99.90
76172;DHT22;64929;51.178;4.138;2024-02-21T07:41:25;9.40;99.90
76172;DHT22;64929;51.178;4.138;2024-02-21T07:43:51;9.30;99.90
76172;DHT22;64929;51.178;4.138;2024-02-21T07:46:18;9.30;99.90
76172;DHT22;64929;51.178;4.138;2024-02-21T07:48:45;9.40;99.90
76172;DHT22;64929;51.178;4.138;2024-02-21T07:51:11;9.40;99.90
76172;DHT22;64929;51.178;4.138;2024-02-21T07:53:38;9.40;99.90
76172;DHT22;64929;51.178;4.138;2024-02-21T07:56:04;9.30;99.90
76172;DHT22;64929;51.178;4.138;2024-02-21T07:58:30;9.40;99.90
76172;DHT22;64929;51.178;4.138;2024-02-21T08:00:55;9.40;99.90
76172;DHT22;64929;51.178;4.138;2024-02-21T08:03:21;9.40;99.90
76172;DHT22;64929;51.178;4.138;2024-02-21T08:05:48;9.40;99.90
76172;DHT22;64929;51.178;4.138;2024-02-21T08:08:13;9.40;99.90
76172;DHT22;64929;51.178;4.138;2024-02-21T08:10:43;9.40;99.90
76172;DHT22;64929;51.178;4.138;2024-02-21T08:13:09;9.40;99.90
76172;DHT22;64929;51.178;4.138;2024-02-21T08:15:35;9.40;99.90
76172;DHT22;64929;51.178;4.138;2024-02-21T08:18:00;9.40;99.90
76172;DHT22;64929;51.178;4.138;2024-02-21T08:20:27;9.40;99.90
76172;DHT22;64929;51.178;4.138;2024-02-21T08:22:53;9.50;99.90
76172;DHT22;64929;51.178;4.138;2024-02-21T08:25:19;9.50;99.90
76172;DHT22;64929;51.178;4.138;2024-02-21T08:27:44;9.50;99.90
76172;DHT22;64929;51.178;4.138;2024-02-21T08:30:11;9.60;99.90
76172;DHT22;64929;51.178;4.138;2024-02-21T08:32:37;9.60;99.90
76172;DHT22;64929;51.178;4.138;2024-02-21T08:35:03;9.70;99.90
76172;DHT22;64929;51.178;4.138;2024-02-21T08:37:30;9.70;99.90
76172;DHT22;64929;51.178;4.138;2024-02-21T08:39:56;9.70;99.90
76172;DHT22;64929;51.178;4.138;2024-02-21T08:42:22;9.60;99.90
76172;DHT22;64929;51.178;4.138;2024-02-21T08:44:47;9.60;99.90
76172;DHT22;64929;51.178;4.138;2024-02-21T08:47:13;9.60;99.90
76172;DHT22;64929;51.178;4.138;2024-02-21T08:49:39;9.60;99.90
76172;DHT22;64929;51.178;4.138;2024-02-21T08:52:05;9.60;99.90
76172;DHT22;64929;51.178;4.138;2024-02-21T08:54:31;9.50;99.90
76172;DHT22;64929;51.178;4.138;2024-02-21T08:56:58;9.50;99.90
76172;DHT22;64929;51.178;4.138;2024-02-21T08:59:24;9.50;99.90
76172;DHT22;64929;51.178;4.138;2024-02-21T09:01:50;9.50;99.90
76172;DHT22;64929;51.178;4.138;2024-02-21T09:04:17;9.60;99.90
76172;DHT22;64929;51.178;4.138;2024-02-21T09:06:43;9.50;99.90
76172;DHT22;64929;51.178;4.138;2024-02-21T09:09:10;9.60;99.90
76172;DHT22;64929;51.178;4.138;2024-02-21T09:11:36;9.60;99.90
76172;DHT22;64929;51.178;4.138;2024-02-21T09:14:02;9.60;99.90
76172;DHT22;64929;51.178;4.138;2024-02-21T09:16:31;9.70;99.90
76172;DHT22;64929;51.178;4.138;2024-02-21T09:18:57;9.60;99.90
76172;DHT22;64929;51.178;4.138;2024-02-21T09:21:23;9.60;99.90
76172;DHT22;64929;51.178;4.138;2024-02-21T09:23:49;9.50;99.90
76172;DHT22;64929;51.178;4.138;2024-02-21T09:26:14;9.60;99.90
76172;DHT22;64929;51.178;4.138;2024-02-21T09:28:45;9.60;99.90
76172;DHT22;64929;51.178;4.138;2024-02-21T09:31:11;9.60;99.90
76172;DHT22;64929;51.178;4.138;2024-02-21T09:33:37;9.60;99.90
76172;DHT22;64929;51.178;4.138;2024-02-21T09:36:03;9.70;99.90
76172;DHT22;64929;51.178;4.138;2024-02-21T09:38:31;9.70;99.90
76172;DHT22;64929;51.178;4.138;2024-02-21T09:43:31;9.70;99.90
76172;DHT22;64929;51.178;4.138;2024-02-21T09:45:58;9.70;99.90
76172;DHT22;64929;51.178;4.138;2024-02-21T09:48:55;9.70;99.90
76172;DHT22;64929;51.178;4.138;2024-02-21T09:51:24;9.70;99.90
76172;DHT22;64929;51.178;4.138;2024-02-21T09:53:51;9.80;99.90
76172;DHT22;64929;51.178;4.138;2024-02-21T09:56:18;9.90;99.90
76172;DHT22;64929;51.178;4.138;2024-02-21T09:58:44;9.80;99.90
76172;DHT22;64929;51.178;4.138;2024-02-21T10:01:10;9.90;99.90
76172;DHT22;64929;51.178;4.138;2024-02-21T10:03:35;9.80;99.90
76172;DHT22;64929;51.178;4.138;2024-02-21T10:06:01;9.90;99.90
76172;DHT22;64929;51.178;4.138;2024-02-21T10:08:28;9.80;99.90
76172;DHT22;64929;51.178;4.138;2024-02-21T10:10:53;9.90;99.90
76172;DHT22;64929;51.178;4.138;2024-02-21T10:13:30;9.90;99.90
76172;DHT22;64929;51.178;4.138;2024-02-21T10:16:06;10.00;99.90
76172;DHT22;64929;51.178;4.138;2024-02-21T10:18:32;10.00;99.90
76172;DHT22;64929;51.178;4.138;2024-02-21T10:21:03;10.10;99.90
76172;DHT22;64929;51.178;4.138;2024-02-21T10:23:29;10.10;99.90
76172;DHT22;64929;51.178;4.138;2024-02-21T10:26:05;10.20;99.90
76172;DHT22;64929;51.178;4.138;2024-02-21T10:28:31;10.10;99.90
76172;DHT22;64929;51.178;4.138;2024-02-21T10:30:57;10.10;99.90
76172;DHT22;64929;51.178;4.138;2024-02-21T10:33:22;10.10;99.90
76172;DHT22;64929;51.178;4.138;2024-02-21T10:35:50;10.10;99.90
76172;DHT22;64929;51.178;4.138;2024-02-21T10:38:18;10.10;99.90
76172;DHT22;64929;51.178;4.138;2024-02-21T10:40:44;10.10;99.90
76172;DHT22;64929;51.178;4.138;2024-02-21T10:43:13;10.20;99.90
76172;DHT22;64929;51.178;4.138;2024-02-21T10:45:41;10.20;99.90
76172;DHT22;64929;51.178;4.138;2024-02-21T10:48:14;10.30;99.90
76172;DHT22;64929;51.178;4.138;2024-02-21T10:51:19;10.40;99.90
76172;DHT22;64929;51.178;4.138;2024-02-21T10:56:32;10.50;99.90
76172;DHT22;64929;51.178;4.138;2024-02-21T10:59:06;10.50;99.90
76172;DHT22;64929;51.178;4.138;2024-02-21T11:01:32;10.30;99.90
76172;DHT22;64929;51.178;4.138;2024-02-21T11:04:08;10.20;99.90
76172;DHT22;64929;51.178;4.138;2024-02-21T11:06:37;10.30;99.90
76172;DHT22;64929;51.178;4.138;2024-02-21T11:09:07;10.40;99.90
76172;DHT22;64929;51.178;4.138;2024-02-21T11:11:41;10.50;99.90
76172;DHT22;64929;51.178;4.138;2024-02-21T11:14:18;10.50;99.90
76172;DHT22;64929;51.178;4.138;2024-02-21T11:16:45;10.40;99.90
76172;DHT22;64929;51.178;4.138;2024-02-21T11:19:21;10.30;99.90
76172;DHT22;64929;51.178;4.138;2024-02-21T11:21:48;10.30;99.90
76172;DHT22;64929;51.178;4.138;2024-02-21T11:24:14;10.30;99.90
76172;DHT22;64929;51.178;4.138;2024-02-21T11:26:50;10.30;99.90
76172;DHT22;64929;51.178;4.138;2024-02-21T11:29:23;10.40;99.90
76172;DHT22;64929;51.178;4.138;2024-02-21T11:31:49;10.40;99.90
76172;DHT22;64929;51.178;4.138;2024-02-21T11:34:18;10.40;99.90
76172;DHT22;64929;51.178;4.138;2024-02-21T11:36:48;10.40;99.90
76172;DHT22;64929;51.178;4.138;2024-02-21T11:39:25;10.30;99.90
76172;DHT22;64929;51.178;4.138;2024-02-21T11:42:04;10.30;99.90
76172;DHT22;64929;51.178;4.138;2024-02-21T11:44:31;10.20;99.90
76172;DHT22;64929;51.178;4.138;2024-02-21T11:46:58;10.30;99.90
76172;DHT22;64929;51.178;4.138;2024-02-21T11:49:28;10.20;99.90
76172;DHT22;64929;51.178;4.138;2024-02-21T11:52:01;10.20;99.90
76172;DHT22;64929;51.178;4.138;2024-02-21T11:54:30;10.20;99.90
76172;DHT22;64929;51.178;4.138;2024-02-21T11:56:55;10.20;99.90
76172;DHT22;64929;51.178;4.138;2024-02-21T11:59:21;10.30;99.90
76172;DHT22;64929;51.178;4.138;2024-02-21T12:01:48;10.40;99.90
76172;DHT22;64929;51.178;4.138;2024-02-21T12:04:15;10.40;99.90
76172;DHT22;64929;51.178;4.138;2024-02-21T12:06:43;10.20;99.90
76172;DHT22;64929;51.178;4.138;2024-02-21T12:09:09;10.30;99.90
76172;DHT22;64929;51.178;4.138;2024-02-21T12:11:39;10.30;99.90
76172;DHT22;64929;51.178;4.138;2024-02-21T12:14:04;10.20;99.90
76172;DHT22;64929;51.178;4.138;2024-02-21T12:16:31;10.30;99.90
76172;DHT22;64929;51.178;4.138;2024-02-21T12:19:01;10.20;99.90
76172;DHT22;64929;51.178;4.138;2024-02-21T12:21:30;10.30;99.90
76172;DHT22;64929;51.178;4.138;2024-02-21T12:23:58;10.40;99.90
76172;DHT22;64929;51.178;4.138;2024-02-21T12:26:25;10.40;99.90
76172;DHT22;64929;51.178;4.138;2024-02-21T12:28:51;10.40;99.90
76172;DHT22;64929;51.178;4.138;2024-02-21T12:31:16;10.40;99.90
76172;DHT22;64929;51.178;4.138;2024-02-21T12:33:43;10.40;99.90
76172;DHT22;64929;51.178;4.138;2024-02-21T12:36:09;10.30;99.90
76172;DHT22;64929;51.178;4.138;2024-02-21T12:38:35;10.30;99.90
76172;DHT22;64929;51.178;4.138;2024-02-21T12:41:01;10.40;99.90
76172;DHT22;64929;51.178;4.138;2024-02-21T12:43:27;10.50;99.90
76172;DHT22;64929;51.178;4.138;2024-02-21T12:45:53;10.40;99.90
76172;DHT22;64929;51.178;4.138;2024-02-21T12:48:19;10.60;99.90
76172;DHT22;64929;51.178;4.138;2024-02-21T12:50:51;10.60;99.90
76172;DHT22;64929;51.178;4.138;2024-02-21T12:53:18;10.60;99.90
76172;DHT22;64929;51.178;4.138;2024-02-21T12:55:47;10.70;99.90
76172;DHT22;64929;51.178;4.138;2024-02-21T12:58:14;10.60;99.90
76172;DHT22;64929;51.178;4.138;2024-02-21T13:00:40;10.70;99.90
76172;DHT22;64929;51.178;4.138;2024-02-21T13:03:06;10.60;99.90
76172;DHT22;64929;51.178;4.138;2024-02-21T13:05:31;10.60;99.90
76172;DHT22;64929;51.178;4.138;2024-02-21T13:07:58;10.70;99.90
76172;DHT22;64929;51.178;4.138;2024-02-21T13:10:24;10.70;99.90
76172;DHT22;64929;51.178;4.138;2024-02-21T13:12:49;10.70;99.90
76172;DHT22;64929;51.178;4.138;2024-02-21T13:15:15;10.70;99.90
76172;DHT22;64929;51.178;4.138;2024-02-21T13:17:44;10.70;99.90
76172;DHT22;64929;51.178;4.138;2024-02-21T13:20:10;10.80;99.90
76172;DHT22;64929;51.178;4.138;2024-02-21T13:22:37;10.80;99.90
76172;DHT22;64929;51.178;4.138;2024-02-21T13:25:06;10.90;99.90
76172;DHT22;64929;51.178;4.138;2024-02-21T13:27:33;10.80;99.90
76172;DHT22;64929;51.178;4.138;2024-02-21T13:29:59;10.90;99.90
76172;DHT22;64929;51.178;4.138;2024-02-21T13:32:26;10.80;99.90
76172;DHT22;64929;51.178;4.138;2024-02-21T13:34:52;10.80;99.90
76172;DHT22;64929;51.178;4.138;2024-02-21T13:37:18;10.90;99.90
76172;DHT22;64929;51.178;4.138;2024-02-21T13:39:44;10.90;99.90
76172;DHT22;64929;51.178;4.138;2024-02-21T13:42:09;10.80;99.90
76172;DHT22;64929;51.178;4.138;2024-02-21T13:44:35;10.80;99.90
76172;DHT22;64929;51.178;4.138;2024-02-21T13:47:02;10.70;99.90
76172;DHT22;64929;51.178;4.138;2024-02-21T13:49:28;10.70;99.90
76172;DHT22;64929;51.178;4.138;2024-02-21T13:51:55;10.60;99.90
76172;DHT22;64929;51.178;4.138;2024-02-21T13:54:21;10.50;99.90
76172;DHT22;64929;51.178;4.138;2024-02-21T13:56:47;10.50;99.90
76172;DHT22;64929;51.178;4.138;2024-02-21T13:59:12;10.40;99.90
76172;DHT22;64929;51.178;4.138;2024-02-21T14:01:41;10.40;99.90
76172;DHT22;64929;51.178;4.138;2024-02-21T14:04:08;10.20;99.90
76172;DHT22;64929;51.178;4.138;2024-02-21T14:06:34;10.30;99.90
76172;DHT22;64929;51.178;4.138;2024-02-21T14:08:59;10.20;99.90
76172;DHT22;64929;51.178;4.138;2024-02-21T14:11:25;10.20;99.90
76172;DHT22;64929;51.178;4.138;2024-02-21T14:13:52;10.10;99.90
76172;DHT22;64929;51.178;4.138;2024-02-21T14:16:18;10.10;99.90
76172;DHT22;64929;51.178;4.138;2024-02-21T14:18:43;10.10;99.90
76172;DHT22;64929;51.178;4.138;2024-02-21T14:21:10;10.10;99.90
76172;DHT22;64929;51.178;4.138;2024-02-21T14:23:40;10.10;99.90
76172;DHT22;64929;51.178;4.138;2024-02-21T14:26:05;10.10;99.90
76172;DHT22;64929;51.178;4.138;2024-02-21T14:28:32;10.10;99.90
76172;DHT22;64929;51.178;4.138;2024-02-21T14:30:59;10.00;99.90
76172;DHT22;64929;51.178;4.138;2024-02-21T14:33:26;10.00;99.90
76172;DHT22;64929;51.178;4.138;2024-02-21T14:35:52;10.00;99.90
76172;DHT22;64929;51.178;4.138;2024-02-21T14:38:21;10.00;99.90
76172;DHT22;64929;51.178;4.138;2024-02-21T14:40:47;10.00;99.90
76172;DHT22;64929;51.178;4.138;2024-02-21T14:43:13;10.00;99.90
76172;DHT22;64929;51.178;4.138;2024-02-21T14:45:39;10.10;99.90
76172;DHT22;64929;51.178;4.138;2024-02-21T14:48:06;10.10;99.90
76172;DHT22;64929;51.178;4.138;2024-02-21T14:50:32;10.00;99.90
76172;DHT22;64929;51.178;4.138;2024-02-21T14:52:58;10.00;99.90
76172;DHT22;64929;51.178;4.138;2024-02-21T14:55:23;10.00;99.90
76172;DHT22;64929;51.178;4.138;2024-02-21T14:57:49;9.90;99.90
76172;DHT22;64929;51.178;4.138;2024-02-21T15:00:16;9.90;99.90
76172;DHT22;64929;51.178;4.138;2024-02-21T15:02:41;9.80;99.90
76172;DHT22;64929;51.178;4.138;2024-02-21T15:05:08;9.80;99.90
76172;DHT22;64929;51.178;4.138;2024-02-21T15:07:34;9.80;99.90
76172;DHT22;64929;51.178;4.138;2024-02-21T15:10:00;9.80;99.90
76172;DHT22;64929;51.178;4.138;2024-02-21T15:12:26;9.80;99.90
76172;DHT22;64929;51.178;4.138;2024-02-21T15:14:51;9.70;99.90
76172;DHT22;64929;51.178;4.138;2024-02-21T15:17:17;9.80;99.90
76172;DHT22;64929;51.178;4.138;2024-02-21T15:19:46;9.70;99.90
76172;DHT22;64929;51.178;4.138;2024-02-21T15:22:13;9.70;99.90
76172;DHT22;64929;51.178;4.138;2024-02-21T15:24:42;9.70;99.90
76172;DHT22;64929;51.178;4.138;2024-02-21T15:27:08;9.60;99.90
76172;DHT22;64929;51.178;4.138;2024-02-21T15:29:34;9.60;99.90
76172;DHT22;64929;51.178;4.138;2024-02-21T15:32:02;9.70;99.90
76172;DHT22;64929;51.178;4.138;2024-02-21T15:34:28;9.70;99.90
76172;DHT22;64929;51.178;4.138;2024-02-21T15:36:53;9.70;99.90
76172;DHT22;64929;51.178;4.138;2024-02-21T15:39:19;9.60;99.90
76172;DHT22;64929;51.178;4.138;2024-02-21T15:41:45;9.60;99.90